シドニー の空港の天気 - METARとTAF

シドニー国際空港 ( YSSY / SYD ) - オーストラリア ニューサウスウェールズ州、Mascot
飛行場実況気象(Metar)
観測時間09/24 22:00 AEST (09/24 12:00 UTC)
風向・風速北北西 4m/s
視程10km以上
天気現象
なし
気温22℃
湿度25%
気圧1004hPa
METARYSSY 241200Z 33008KT CAVOK 22/01 Q1004 FM1200 MOD/SEV TURB BLW 5000FT
過去の天気等 Google飛行場航空写真 Wunderground天気予報

過去48時間のMETAR

飛行場予報(TAF)
発表時間: 9/24 21:06 AEST (9/24 11:06 UTC)
予報対象時間: 24日22時 AEST ~ 26日4時 AEST
風向・風速西 4m/s
視程10km以上
なし
25日10時 AEST から
風向・風速西 8m/s 瞬間風速 13m/s
視程10km以上
なし
25日19時 AEST から
風向・風速南西 5m/s
視程10km以上
なし
TAF YSSY 241106Z 2412/2518 28008KT CAVOK
FM250000 26015G25KT CAVOK
FM250900 23010KT CAVOK